Terminal Aerodrome Forecast
Issued by NWS Twin Cities, MN

Home | Current Version | Previous Version | Graphics & Text | Print | Product List | Glossary On
Versions: 1 2 3 4 5 6 7 8 9 10 11 12 13 14 15
000
FTUS43 KMPX 241720
TAFEAU
TAF
KEAU 241720Z 2418/2518 11011KT P6SM OVC070
     FM242000 12013KT 6SM -SHRA SCT030 OVC050
     FM250300 09011KT 6SM -DZ OVC025
     FM250600 09011KT 6SM -DZ BR OVC015
     FM251200 07009KT P6SM SCT020 OVC030=

USA.gov is the U.S. government's official web portal to all federal, state and local government web resources and services.